sensor_id;sensor_type;location;lat;lon;timestamp;P1;durP1;ratioP1;P2;durP2;ratioP2
2041;SDS011;1026;51.460;7.252;2022-08-01T00:00:22;4.60;;;4.20;;
2041;SDS011;1026;51.460;7.252;2022-08-01T00:02:47;5.00;;;3.90;;
2041;SDS011;1026;51.460;7.252;2022-08-01T00:05:13;4.00;;;3.60;;
2041;SDS011;1026;51.460;7.252;2022-08-01T00:07:39;3.30;;;3.00;;
2041;SDS011;1026;51.460;7.252;2022-08-01T00:10:06;2.87;;;2.67;;
2041;SDS011;1026;51.460;7.252;2022-08-01T00:12:33;6.93;;;3.83;;
2041;SDS011;1026;51.460;7.252;2022-08-01T00:14:59;3.30;;;3.00;;
2041;SDS011;1026;51.460;7.252;2022-08-01T00:17:25;4.27;;;3.50;;
2041;SDS011;1026;51.460;7.252;2022-08-01T00:19:50;2.87;;;2.67;;
2041;SDS011;1026;51.460;7.252;2022-08-01T00:22:16;4.93;;;4.53;;
2041;SDS011;1026;51.460;7.252;2022-08-01T00:24:42;3.23;;;2.93;;
2041;SDS011;1026;51.460;7.252;2022-08-01T00:27:07;2.93;;;2.53;;
2041;SDS011;1026;51.460;7.252;2022-08-01T00:29:33;3.87;;;3.60;;
2041;SDS011;1026;51.460;7.252;2022-08-01T00:31:59;5.53;;;5.13;;
2041;SDS011;1026;51.460;7.252;2022-08-01T00:34:24;6.40;;;5.90;;
2041;SDS011;1026;51.460;7.252;2022-08-01T00:36:50;7.17;;;6.60;;
2041;SDS011;1026;51.460;7.252;2022-08-01T00:39:16;9.10;;;8.30;;
2041;SDS011;1026;51.460;7.252;2022-08-01T00:41:41;3.10;;;2.90;;
2041;SDS011;1026;51.460;7.252;2022-08-01T00:44:07;4.77;;;4.33;;
2041;SDS011;1026;51.460;7.252;2022-08-01T00:46:33;7.53;;;6.90;;
2041;SDS011;1026;51.460;7.252;2022-08-01T00:48:58;8.07;;;7.40;;
2041;SDS011;1026;51.460;7.252;2022-08-01T00:51:25;2.80;;;2.60;;
2041;SDS011;1026;51.460;7.252;2022-08-01T00:53:51;2.90;;;2.70;;
2041;SDS011;1026;51.460;7.252;2022-08-01T00:56:19;3.30;;;3.10;;
2041;SDS011;1026;51.460;7.252;2022-08-01T00:58:46;12.07;;;11.00;;
2041;SDS011;1026;51.460;7.252;2022-08-01T01:01:12;8.10;;;7.40;;
2041;SDS011;1026;51.460;7.252;2022-08-01T01:03:38;5.77;;;5.07;;
2041;SDS011;1026;51.460;7.252;2022-08-01T01:06:09;3.70;;;3.40;;
2041;SDS011;1026;51.460;7.252;2022-08-01T01:08:41;3.30;;;3.10;;
2041;SDS011;1026;51.460;7.252;2022-08-01T01:11:12;8.23;;;7.53;;
2041;SDS011;1026;51.460;7.252;2022-08-01T01:13:43;9.63;;;8.70;;
2041;SDS011;1026;51.460;7.252;2022-08-01T01:16:15;7.87;;;7.20;;
2041;SDS011;1026;51.460;7.252;2022-08-01T01:18:45;3.97;;;3.60;;
2041;SDS011;1026;51.460;7.252;2022-08-01T01:21:47;6.30;;;5.70;;
2041;SDS011;1026;51.460;7.252;2022-08-01T01:27:06;4.30;;;4.00;;
2041;SDS011;1026;51.460;7.252;2022-08-01T01:29:44;10.87;;;9.80;;
2041;SDS011;1026;51.460;7.252;2022-08-01T01:32:17;8.67;;;7.77;;
2041;SDS011;1026;51.460;7.252;2022-08-01T01:34:48;8.47;;;7.67;;
2041;SDS011;1026;51.460;7.252;2022-08-01T01:37:17;3.57;;;3.27;;
2041;SDS011;1026;51.460;7.252;2022-08-01T01:39:46;5.73;;;5.10;;
2041;SDS011;1026;51.460;7.252;2022-08-01T01:42:15;4.40;;;4.10;;
2041;SDS011;1026;51.460;7.252;2022-08-01T01:44:43;4.00;;;3.70;;
2041;SDS011;1026;51.460;7.252;2022-08-01T01:47:11;3.57;;;3.27;;
2041;SDS011;1026;51.460;7.252;2022-08-01T01:49:39;4.43;;;4.13;;
2041;SDS011;1026;51.460;7.252;2022-08-01T01:52:06;11.03;;;9.83;;
2041;SDS011;1026;51.460;7.252;2022-08-01T01:54:35;5.10;;;4.70;;
2041;SDS011;1026;51.460;7.252;2022-08-01T01:57:04;7.90;;;7.10;;
2041;SDS011;1026;51.460;7.252;2022-08-01T01:59:32;7.63;;;6.93;;
2041;SDS011;1026;51.460;7.252;2022-08-01T02:02:01;7.20;;;6.60;;
2041;SDS011;1026;51.460;7.252;2022-08-01T02:04:29;11.90;;;10.70;;
2041;SDS011;1026;51.460;7.252;2022-08-01T02:06:57;6.43;;;3.83;;
2041;SDS011;1026;51.460;7.252;2022-08-01T02:09:26;5.37;;;4.97;;
2041;SDS011;1026;51.460;7.252;2022-08-01T02:11:53;4.60;;;4.20;;
2041;SDS011;1026;51.460;7.252;2022-08-01T02:14:19;4.80;;;4.43;;
2041;SDS011;1026;51.460;7.252;2022-08-01T02:16:48;4.20;;;3.90;;
2041;SDS011;1026;51.460;7.252;2022-08-01T02:19:16;4.27;;;3.90;;
2041;SDS011;1026;51.460;7.252;2022-08-01T02:21:45;4.73;;;4.33;;
2041;SDS011;1026;51.460;7.252;2022-08-01T02:27:03;4.17;;;3.87;;
2041;SDS011;1026;51.460;7.252;2022-08-01T02:29:34;4.67;;;4.27;;
2041;SDS011;1026;51.460;7.252;2022-08-01T02:32:04;4.80;;;4.40;;
2041;SDS011;1026;51.460;7.252;2022-08-01T02:34:32;5.27;;;4.87;;
2041;SDS011;1026;51.460;7.252;2022-08-01T02:37:00;4.70;;;4.30;;
2041;SDS011;1026;51.460;7.252;2022-08-01T02:39:29;5.60;;;5.10;;
2041;SDS011;1026;51.460;7.252;2022-08-01T02:41:57;6.47;;;5.90;;
2041;SDS011;1026;51.460;7.252;2022-08-01T02:44:30;5.00;;;4.57;;
2041;SDS011;1026;51.460;7.252;2022-08-01T02:47:00;11.13;;;9.93;;
2041;SDS011;1026;51.460;7.252;2022-08-01T02:49:33;5.80;;;5.27;;
2041;SDS011;1026;51.460;7.252;2022-08-01T02:52:01;5.90;;;5.40;;
2041;SDS011;1026;51.460;7.252;2022-08-01T02:54:31;12.53;;;10.97;;
2041;SDS011;1026;51.460;7.252;2022-08-01T02:56:58;5.20;;;4.50;;
2041;SDS011;1026;51.460;7.252;2022-08-01T02:59:26;4.20;;;3.90;;
2041;SDS011;1026;51.460;7.252;2022-08-01T03:01:53;11.20;;;10.10;;
2041;SDS011;1026;51.460;7.252;2022-08-01T03:04:21;6.60;;;6.00;;
2041;SDS011;1026;51.460;7.252;2022-08-01T03:06:49;6.53;;;5.93;;
2041;SDS011;1026;51.460;7.252;2022-08-01T03:09:17;4.43;;;4.07;;
2041;SDS011;1026;51.460;7.252;2022-08-01T03:11:44;10.80;;;9.13;;
2041;SDS011;1026;51.460;7.252;2022-08-01T03:14:11;5.53;;;5.13;;
2041;SDS011;1026;51.460;7.252;2022-08-01T03:16:39;6.73;;;6.13;;
2041;SDS011;1026;51.460;7.252;2022-08-01T03:19:08;8.23;;;7.53;;
2041;SDS011;1026;51.460;7.252;2022-08-01T03:21:36;5.70;;;5.20;;
2041;SDS011;1026;51.460;7.252;2022-08-01T03:24:12;10.97;;;9.87;;
2041;SDS011;1026;51.460;7.252;2022-08-01T03:26:42;5.40;;;4.73;;
2041;SDS011;1026;51.460;7.252;2022-08-01T03:29:10;10.77;;;9.67;;
2041;SDS011;1026;51.460;7.252;2022-08-01T03:31:40;5.20;;;4.73;;
2041;SDS011;1026;51.460;7.252;2022-08-01T03:34:09;8.33;;;7.57;;
2041;SDS011;1026;51.460;7.252;2022-08-01T03:36:38;6.53;;;5.70;;
2041;SDS011;1026;51.460;7.252;2022-08-01T03:39:12;5.23;;;4.73;;
2041;SDS011;1026;51.460;7.252;2022-08-01T03:41:40;14.33;;;12.93;;
2041;SDS011;1026;51.460;7.252;2022-08-01T03:44:13;13.40;;;12.07;;
2041;SDS011;1026;51.460;7.252;2022-08-01T03:46:43;9.27;;;8.37;;
2041;SDS011;1026;51.460;7.252;2022-08-01T03:49:14;5.80;;;5.30;;
2041;SDS011;1026;51.460;7.252;2022-08-01T03:51:47;6.37;;;5.67;;
2041;SDS011;1026;51.460;7.252;2022-08-01T03:54:16;4.97;;;4.57;;
2041;SDS011;1026;51.460;7.252;2022-08-01T03:56:46;5.47;;;5.07;;
2041;SDS011;1026;51.460;7.252;2022-08-01T03:59:15;5.63;;;5.13;;
2041;SDS011;1026;51.460;7.252;2022-08-01T04:01:43;4.70;;;4.30;;
2041;SDS011;1026;51.460;7.252;2022-08-01T04:04:13;6.00;;;4.97;;
2041;SDS011;1026;51.460;7.252;2022-08-01T04:06:40;7.47;;;6.77;;
2041;SDS011;1026;51.460;7.252;2022-08-01T04:09:08;5.10;;;4.70;;
2041;SDS011;1026;51.460;7.252;2022-08-01T04:11:34;11.60;;;10.37;;
2041;SDS011;1026;51.460;7.252;2022-08-01T04:14:00;5.60;;;4.83;;
2041;SDS011;1026;51.460;7.252;2022-08-01T04:16:26;5.27;;;4.87;;
2041;SDS011;1026;51.460;7.252;2022-08-01T04:18:51;5.43;;;4.93;;
2041;SDS011;1026;51.460;7.252;2022-08-01T04:21:18;10.70;;;9.40;;
2041;SDS011;1026;51.460;7.252;2022-08-01T04:23:48;4.97;;;4.60;;
2041;SDS011;1026;51.460;7.252;2022-08-01T04:26:16;5.73;;;5.23;;
2041;SDS011;1026;51.460;7.252;2022-08-01T04:28:44;7.90;;;5.10;;
2041;SDS011;1026;51.460;7.252;2022-08-01T04:31:12;5.30;;;4.90;;
2041;SDS011;1026;51.460;7.252;2022-08-01T04:33:42;5.70;;;5.20;;
2041;SDS011;1026;51.460;7.252;2022-08-01T04:36:11;4.80;;;4.40;;
2041;SDS011;1026;51.460;7.252;2022-08-01T04:38:39;5.30;;;4.90;;
2041;SDS011;1026;51.460;7.252;2022-08-01T04:41:07;7.33;;;6.27;;
2041;SDS011;1026;51.460;7.252;2022-08-01T04:43:36;5.50;;;5.00;;
2041;SDS011;1026;51.460;7.252;2022-08-01T04:46:03;7.20;;;6.53;;
2041;SDS011;1026;51.460;7.252;2022-08-01T04:48:31;5.00;;;4.70;;
2041;SDS011;1026;51.460;7.252;2022-08-01T04:50:59;4.90;;;4.50;;
2041;SDS011;1026;51.460;7.252;2022-08-01T04:53:26;5.40;;;5.00;;
2041;SDS011;1026;51.460;7.252;2022-08-01T04:55:52;4.40;;;4.00;;
2041;SDS011;1026;51.460;7.252;2022-08-01T04:58:18;5.70;;;5.10;;
2041;SDS011;1026;51.460;7.252;2022-08-01T05:00:44;8.63;;;7.50;;
2041;SDS011;1026;51.460;7.252;2022-08-01T05:03:10;4.73;;;4.33;;
2041;SDS011;1026;51.460;7.252;2022-08-01T05:05:36;4.33;;;4.00;;
2041;SDS011;1026;51.460;7.252;2022-08-01T05:08:02;5.20;;;4.70;;
2041;SDS011;1026;51.460;7.252;2022-08-01T05:10:27;5.07;;;4.47;;
2041;SDS011;1026;51.460;7.252;2022-08-01T05:12:53;11.50;;;10.07;;
2041;SDS011;1026;51.460;7.252;2022-08-01T05:15:19;5.60;;;5.13;;
2041;SDS011;1026;51.460;7.252;2022-08-01T05:17:44;3.90;;;3.50;;
2041;SDS011;1026;51.460;7.252;2022-08-01T05:20:11;4.67;;;4.27;;
2041;SDS011;1026;51.460;7.252;2022-08-01T05:22:37;4.80;;;4.40;;
2041;SDS011;1026;51.460;7.252;2022-08-01T05:25:04;4.50;;;4.17;;
2041;SDS011;1026;51.460;7.252;2022-08-01T05:27:30;12.67;;;8.83;;
2041;SDS011;1026;51.460;7.252;2022-08-01T05:29:56;4.30;;;4.00;;
2041;SDS011;1026;51.460;7.252;2022-08-01T05:32:22;11.00;;;9.90;;
2041;SDS011;1026;51.460;7.252;2022-08-01T05:34:48;4.07;;;3.77;;
2041;SDS011;1026;51.460;7.252;2022-08-01T05:37:13;4.30;;;3.90;;
2041;SDS011;1026;51.460;7.252;2022-08-01T05:39:39;10.73;;;8.50;;
2041;SDS011;1026;51.460;7.252;2022-08-01T05:42:05;4.33;;;4.03;;
2041;SDS011;1026;51.460;7.252;2022-08-01T05:44:31;4.10;;;3.80;;
2041;SDS011;1026;51.460;7.252;2022-08-01T05:46:56;4.20;;;3.90;;
2041;SDS011;1026;51.460;7.252;2022-08-01T05:49:22;5.00;;;4.60;;
2041;SDS011;1026;51.460;7.252;2022-08-01T05:51:48;3.90;;;3.60;;
2041;SDS011;1026;51.460;7.252;2022-08-01T05:54:14;4.80;;;4.50;;
2041;SDS011;1026;51.460;7.252;2022-08-01T05:56:40;3.83;;;3.53;;
2041;SDS011;1026;51.460;7.252;2022-08-01T05:59:05;3.70;;;3.40;;
2041;SDS011;1026;51.460;7.252;2022-08-01T06:01:31;3.93;;;3.53;;
2041;SDS011;1026;51.460;7.252;2022-08-01T06:03:57;3.93;;;3.63;;
2041;SDS011;1026;51.460;7.252;2022-08-01T06:06:23;3.97;;;3.67;;
2041;SDS011;1026;51.460;7.252;2022-08-01T06:08:49;3.90;;;3.60;;
2041;SDS011;1026;51.460;7.252;2022-08-01T06:11:15;8.80;;;8.00;;
2041;SDS011;1026;51.460;7.252;2022-08-01T06:13:40;5.23;;;4.50;;
2041;SDS011;1026;51.460;7.252;2022-08-01T06:16:06;4.37;;;3.97;;
2041;SDS011;1026;51.460;7.252;2022-08-01T06:18:32;4.77;;;4.47;;
2041;SDS011;1026;51.460;7.252;2022-08-01T06:20:57;6.50;;;5.90;;
2041;SDS011;1026;51.460;7.252;2022-08-01T06:23:23;4.23;;;3.73;;
2041;SDS011;1026;51.460;7.252;2022-08-01T06:25:52;4.03;;;3.67;;
2041;SDS011;1026;51.460;7.252;2022-08-01T06:28:19;10.43;;;8.00;;
2041;SDS011;1026;51.460;7.252;2022-08-01T06:30:45;4.30;;;4.00;;
2041;SDS011;1026;51.460;7.252;2022-08-01T06:33:10;10.33;;;9.23;;
2041;SDS011;1026;51.460;7.252;2022-08-01T06:35:36;10.80;;;9.50;;
2041;SDS011;1026;51.460;7.252;2022-08-01T06:38:02;4.97;;;4.47;;
2041;SDS011;1026;51.460;7.252;2022-08-01T06:40:28;4.47;;;4.07;;
2041;SDS011;1026;51.460;7.252;2022-08-01T06:42:54;3.77;;;3.47;;
2041;SDS011;1026;51.460;7.252;2022-08-01T06:45:19;9.40;;;7.13;;
2041;SDS011;1026;51.460;7.252;2022-08-01T06:47:47;4.87;;;4.37;;
2041;SDS011;1026;51.460;7.252;2022-08-01T06:50:13;6.20;;;5.57;;
2041;SDS011;1026;51.460;7.252;2022-08-01T06:52:39;8.10;;;7.30;;
2041;SDS011;1026;51.460;7.252;2022-08-01T06:55:06;9.50;;;8.40;;
2041;SDS011;1026;51.460;7.252;2022-08-01T06:57:33;12.30;;;10.87;;
2041;SDS011;1026;51.460;7.252;2022-08-01T07:00:00;11.73;;;10.53;;
2041;SDS011;1026;51.460;7.252;2022-08-01T07:02:28;5.63;;;4.90;;
2041;SDS011;1026;51.460;7.252;2022-08-01T07:04:54;5.80;;;5.30;;
2041;SDS011;1026;51.460;7.252;2022-08-01T07:07:20;5.90;;;5.33;;
2041;SDS011;1026;51.460;7.252;2022-08-01T07:09:45;16.00;;;10.50;;
2041;SDS011;1026;51.460;7.252;2022-08-01T07:12:11;11.50;;;9.33;;
2041;SDS011;1026;51.460;7.252;2022-08-01T07:14:36;11.10;;;10.00;;
2041;SDS011;1026;51.460;7.252;2022-08-01T07:17:02;7.60;;;6.50;;
2041;SDS011;1026;51.460;7.252;2022-08-01T07:19:28;6.87;;;6.23;;
2041;SDS011;1026;51.460;7.252;2022-08-01T07:21:53;4.10;;;3.70;;
2041;SDS011;1026;51.460;7.252;2022-08-01T07:24:19;8.20;;;6.57;;
2041;SDS011;1026;51.460;7.252;2022-08-01T07:26:45;10.27;;;7.77;;
2041;SDS011;1026;51.460;7.252;2022-08-01T07:29:12;7.63;;;6.70;;
2041;SDS011;1026;51.460;7.252;2022-08-01T07:31:38;6.03;;;5.43;;
2041;SDS011;1026;51.460;7.252;2022-08-01T07:34:05;7.53;;;6.10;;
2041;SDS011;1026;51.460;7.252;2022-08-01T07:36:30;6.30;;;5.20;;
2041;SDS011;1026;51.460;7.252;2022-08-01T07:38:56;6.80;;;6.07;;
2041;SDS011;1026;51.460;7.252;2022-08-01T07:41:22;6.30;;;5.67;;
2041;SDS011;1026;51.460;7.252;2022-08-01T07:43:48;6.53;;;5.77;;
2041;SDS011;1026;51.460;7.252;2022-08-01T07:46:14;6.33;;;3.97;;
2041;SDS011;1026;51.460;7.252;2022-08-01T07:48:39;4.50;;;4.13;;
2041;SDS011;1026;51.460;7.252;2022-08-01T07:51:05;19.83;;;7.23;;
2041;SDS011;1026;51.460;7.252;2022-08-01T07:53:31;5.03;;;4.63;;
2041;SDS011;1026;51.460;7.252;2022-08-01T07:55:56;6.40;;;4.50;;
2041;SDS011;1026;51.460;7.252;2022-08-01T07:58:22;4.00;;;3.70;;
2041;SDS011;1026;51.460;7.252;2022-08-01T08:00:48;4.43;;;4.00;;
2041;SDS011;1026;51.460;7.252;2022-08-01T08:03:13;6.60;;;5.90;;
2041;SDS011;1026;51.460;7.252;2022-08-01T08:05:39;4.13;;;3.73;;
2041;SDS011;1026;51.460;7.252;2022-08-01T08:08:05;4.17;;;3.77;;
2041;SDS011;1026;51.460;7.252;2022-08-01T08:10:32;3.40;;;3.10;;
2041;SDS011;1026;51.460;7.252;2022-08-01T08:12:58;6.00;;;3.80;;
2041;SDS011;1026;51.460;7.252;2022-08-01T08:15:24;4.13;;;3.37;;
2041;SDS011;1026;51.460;7.252;2022-08-01T08:17:49;3.40;;;3.10;;
2041;SDS011;1026;51.460;7.252;2022-08-01T08:20:15;3.50;;;3.20;;
2041;SDS011;1026;51.460;7.252;2022-08-01T08:22:41;3.87;;;3.33;;
2041;SDS011;1026;51.460;7.252;2022-08-01T08:25:06;3.50;;;3.20;;
2041;SDS011;1026;51.460;7.252;2022-08-01T08:27:33;2.80;;;2.60;;
2041;SDS011;1026;51.460;7.252;2022-08-01T08:30:00;2.78;;;2.50;;
2041;SDS011;1026;51.460;7.252;2022-08-01T08:32:27;3.17;;;2.87;;
2041;SDS011;1026;51.460;7.252;2022-08-01T08:34:52;2.77;;;2.40;;
2041;SDS011;1026;51.460;7.252;2022-08-01T08:37:18;2.70;;;2.50;;
2041;SDS011;1026;51.460;7.252;2022-08-01T08:39:44;2.63;;;2.43;;
2041;SDS011;1026;51.460;7.252;2022-08-01T08:42:10;2.83;;;2.63;;
2041;SDS011;1026;51.460;7.252;2022-08-01T08:44:37;2.90;;;2.60;;
2041;SDS011;1026;51.460;7.252;2022-08-01T08:47:05;2.60;;;2.17;;
2041;SDS011;1026;51.460;7.252;2022-08-01T08:49:33;4.10;;;3.70;;
2041;SDS011;1026;51.460;7.252;2022-08-01T08:52:00;2.83;;;2.47;;
2041;SDS011;1026;51.460;7.252;2022-08-01T08:54:27;1.90;;;1.80;;
2041;SDS011;1026;51.460;7.252;2022-08-01T08:56:54;3.27;;;2.97;;
2041;SDS011;1026;51.460;7.252;2022-08-01T08:59:21;3.20;;;2.93;;
2041;SDS011;1026;51.460;7.252;2022-08-01T09:01:49;2.63;;;2.43;;
2041;SDS011;1026;51.460;7.252;2022-08-01T09:04:15;2.70;;;2.50;;
2041;SDS011;1026;51.460;7.252;2022-08-01T09:06:40;2.83;;;2.63;;
2041;SDS011;1026;51.460;7.252;2022-08-01T09:09:07;3.10;;;2.90;;
2041;SDS011;1026;51.460;7.252;2022-08-01T09:11:33;3.07;;;2.77;;
2041;SDS011;1026;51.460;7.252;2022-08-01T09:14:01;2.90;;;2.70;;
2041;SDS011;1026;51.460;7.252;2022-08-01T09:16:29;2.00;;;1.90;;
2041;SDS011;1026;51.460;7.252;2022-08-01T09:19:06;3.13;;;2.93;;
2041;SDS011;1026;51.460;7.252;2022-08-01T09:21:33;2.80;;;2.60;;
2041;SDS011;1026;51.460;7.252;2022-08-01T09:26:44;2.50;;;2.30;;
2041;SDS011;1026;51.460;7.252;2022-08-01T09:29:16;2.50;;;2.30;;
2041;SDS011;1026;51.460;7.252;2022-08-01T09:31:44;2.70;;;2.50;;
2041;SDS011;1026;51.460;7.252;2022-08-01T09:34:11;3.27;;;3.00;;
2041;SDS011;1026;51.460;7.252;2022-08-01T09:36:45;3.63;;;3.40;;
2041;SDS011;1026;51.460;7.252;2022-08-01T09:39:16;3.47;;;3.27;;
2041;SDS011;1026;51.460;7.252;2022-08-01T09:41:43;2.67;;;2.47;;
2041;SDS011;1026;51.460;7.252;2022-08-01T09:44:09;3.03;;;2.83;;
2041;SDS011;1026;51.460;7.252;2022-08-01T09:46:35;2.63;;;2.43;;
2041;SDS011;1026;51.460;7.252;2022-08-01T09:49:02;2.53;;;2.33;;
2041;SDS011;1026;51.460;7.252;2022-08-01T09:51:30;2.60;;;2.40;;
2041;SDS011;1026;51.460;7.252;2022-08-01T09:54:00;2.73;;;2.50;;
2041;SDS011;1026;51.460;7.252;2022-08-01T09:56:35;1.77;;;1.67;;
2041;SDS011;1026;51.460;7.252;2022-08-01T09:59:02;3.63;;;2.50;;
2041;SDS011;1026;51.460;7.252;2022-08-01T10:01:29;1.90;;;1.80;;
2041;SDS011;1026;51.460;7.252;2022-08-01T10:04:08;27.07;;;3.40;;
2041;SDS011;1026;51.460;7.252;2022-08-01T10:06:36;2.00;;;1.90;;
2041;SDS011;1026;51.460;7.252;2022-08-01T10:09:02;2.00;;;1.90;;
2041;SDS011;1026;51.460;7.252;2022-08-01T10:11:28;1.90;;;1.80;;
2041;SDS011;1026;51.460;7.252;2022-08-01T10:13:56;2.20;;;1.40;;
2041;SDS011;1026;51.460;7.252;2022-08-01T10:16:24;2.50;;;2.30;;
2041;SDS011;1026;51.460;7.252;2022-08-01T10:18:51;1.93;;;1.60;;
2041;SDS011;1026;51.460;7.252;2022-08-01T10:21:18;1.87;;;1.67;;
2041;SDS011;1026;51.460;7.252;2022-08-01T10:23:45;1.93;;;1.70;;
2041;SDS011;1026;51.460;7.252;2022-08-01T10:26:12;2.50;;;2.30;;
2041;SDS011;1026;51.460;7.252;2022-08-01T10:28:39;2.60;;;2.40;;
2041;SDS011;1026;51.460;7.252;2022-08-01T10:31:07;2.77;;;2.20;;
2041;SDS011;1026;51.460;7.252;2022-08-01T10:33:32;2.20;;;2.10;;
2041;SDS011;1026;51.460;7.252;2022-08-01T10:36:01;2.30;;;2.10;;
2041;SDS011;1026;51.460;7.252;2022-08-01T10:38:27;1.73;;;1.63;;
2041;SDS011;1026;51.460;7.252;2022-08-01T10:40:53;2.10;;;1.90;;
2041;SDS011;1026;51.460;7.252;2022-08-01T10:43:22;1.97;;;1.87;;
2041;SDS011;1026;51.460;7.252;2022-08-01T10:45:47;1.87;;;1.77;;
2041;SDS011;1026;51.460;7.252;2022-08-01T10:50:58;3.27;;;2.60;;
2041;SDS011;1026;51.460;7.252;2022-08-01T10:53:26;2.70;;;2.50;;
2041;SDS011;1026;51.460;7.252;2022-08-01T10:55:57;2.13;;;2.03;;
2041;SDS011;1026;51.460;7.252;2022-08-01T10:58:28;1.77;;;1.67;;
2041;SDS011;1026;51.460;7.252;2022-08-01T11:03:40;2.27;;;2.17;;
2041;SDS011;1026;51.460;7.252;2022-08-01T11:06:06;1.63;;;1.53;;
2041;SDS011;1026;51.460;7.252;2022-08-01T11:08:42;1.60;;;1.50;;
2041;SDS011;1026;51.460;7.252;2022-08-01T11:11:15;1.63;;;1.53;;
2041;SDS011;1026;51.460;7.252;2022-08-01T11:16:27;1.60;;;1.50;;
2041;SDS011;1026;51.460;7.252;2022-08-01T11:18:57;1.67;;;1.57;;
2041;SDS011;1026;51.460;7.252;2022-08-01T11:21:54;1.70;;;1.60;;
2041;SDS011;1026;51.460;7.252;2022-08-01T11:27:26;1.70;;;1.60;;
2041;SDS011;1026;51.460;7.252;2022-08-01T11:35:18;2.30;;;1.53;;
2041;SDS011;1026;51.460;7.252;2022-08-01T11:37:46;2.47;;;2.30;;
2041;SDS011;1026;51.460;7.252;2022-08-01T11:42:44;1.77;;;1.67;;
2041;SDS011;1026;51.460;7.252;2022-08-01T11:45:10;1.40;;;1.40;;
2041;SDS011;1026;51.460;7.252;2022-08-01T11:47:42;1.40;;;1.30;;
2041;SDS011;1026;51.460;7.252;2022-08-01T11:52:57;2.13;;;1.93;;
2041;SDS011;1026;51.460;7.252;2022-08-01T11:55:25;1.80;;;1.70;;
2041;SDS011;1026;51.460;7.252;2022-08-01T11:58:00;1.93;;;1.83;;
2041;SDS011;1026;51.460;7.252;2022-08-01T12:00:28;1.83;;;1.73;;
2041;SDS011;1026;51.460;7.252;2022-08-01T12:02:56;1.80;;;1.70;;
2041;SDS011;1026;51.460;7.252;2022-08-01T12:05:24;1.70;;;1.60;;
2041;SDS011;1026;51.460;7.252;2022-08-01T12:07:51;1.90;;;1.80;;
2041;SDS011;1026;51.460;7.252;2022-08-01T12:10:19;1.67;;;1.57;;
2041;SDS011;1026;51.460;7.252;2022-08-01T12:12:54;1.52;;;1.42;;
2041;SDS011;1026;51.460;7.252;2022-08-01T12:15:24;6.53;;;1.80;;
2041;SDS011;1026;51.460;7.252;2022-08-01T12:17:57;1.50;;;1.40;;
2041;SDS011;1026;51.460;7.252;2022-08-01T12:20:26;1.80;;;1.40;;
2041;SDS011;1026;51.460;7.252;2022-08-01T12:22:54;1.90;;;1.80;;
2041;SDS011;1026;51.460;7.252;2022-08-01T12:25:21;1.67;;;1.57;;
2041;SDS011;1026;51.460;7.252;2022-08-01T12:27:47;1.87;;;1.47;;
2041;SDS011;1026;51.460;7.252;2022-08-01T12:30:14;1.77;;;1.67;;
2041;SDS011;1026;51.460;7.252;2022-08-01T12:32:42;1.93;;;1.83;;
2041;SDS011;1026;51.460;7.252;2022-08-01T12:35:10;1.90;;;1.80;;
2041;SDS011;1026;51.460;7.252;2022-08-01T12:37:37;1.63;;;1.20;;
2041;SDS011;1026;51.460;7.252;2022-08-01T12:40:09;1.60;;;1.50;;
2041;SDS011;1026;51.460;7.252;2022-08-01T12:42:38;1.90;;;1.40;;
2041;SDS011;1026;51.460;7.252;2022-08-01T12:45:07;1.70;;;1.60;;
2041;SDS011;1026;51.460;7.252;2022-08-01T12:47:34;1.40;;;1.30;;
2041;SDS011;1026;51.460;7.252;2022-08-01T12:50:05;1.73;;;1.63;;
2041;SDS011;1026;51.460;7.252;2022-08-01T12:52:32;1.80;;;1.70;;
2041;SDS011;1026;51.460;7.252;2022-08-01T12:55:06;1.70;;;1.60;;
2041;SDS011;1026;51.460;7.252;2022-08-01T12:57:33;1.50;;;1.40;;
2041;SDS011;1026;51.460;7.252;2022-08-01T13:02:50;1.60;;;1.50;;
2041;SDS011;1026;51.460;7.252;2022-08-01T13:05:26;1.07;;;1.03;;
2041;SDS011;1026;51.460;7.252;2022-08-01T13:07:52;1.57;;;1.47;;
2041;SDS011;1026;51.460;7.252;2022-08-01T13:10:27;0.90;;;0.90;;
2041;SDS011;1026;51.460;7.252;2022-08-01T13:12:55;1.73;;;1.63;;
2041;SDS011;1026;51.460;7.252;2022-08-01T13:15:23;1.30;;;1.20;;
2041;SDS011;1026;51.460;7.252;2022-08-01T13:17:55;1.43;;;1.33;;
2041;SDS011;1026;51.460;7.252;2022-08-01T13:20:21;2.00;;;1.80;;
2041;SDS011;1026;51.460;7.252;2022-08-01T13:22:48;1.33;;;1.30;;
2041;SDS011;1026;51.460;7.252;2022-08-01T13:25:15;1.17;;;1.17;;
2041;SDS011;1026;51.460;7.252;2022-08-01T13:27:41;1.50;;;1.40;;
2041;SDS011;1026;51.460;7.252;2022-08-01T13:30:12;1.90;;;1.80;;
2041;SDS011;1026;51.460;7.252;2022-08-01T13:32:40;1.60;;;1.50;;
2041;SDS011;1026;51.460;7.252;2022-08-01T13:35:09;1.47;;;1.37;;
2041;SDS011;1026;51.460;7.252;2022-08-01T13:37:37;1.47;;;1.37;;
2041;SDS011;1026;51.460;7.252;2022-08-01T13:40:04;1.40;;;1.30;;
2041;SDS011;1026;51.460;7.252;2022-08-01T13:42:31;1.10;;;1.10;;
2041;SDS011;1026;51.460;7.252;2022-08-01T13:44:57;2.57;;;1.67;;
2041;SDS011;1026;51.460;7.252;2022-08-01T13:47:22;1.50;;;1.40;;
2041;SDS011;1026;51.460;7.252;2022-08-01T13:49:48;1.80;;;1.70;;
2041;SDS011;1026;51.460;7.252;2022-08-01T13:52:14;1.57;;;1.47;;
2041;SDS011;1026;51.460;7.252;2022-08-01T13:54:39;1.43;;;1.33;;
2041;SDS011;1026;51.460;7.252;2022-08-01T13:57:05;1.40;;;1.30;;
2041;SDS011;1026;51.460;7.252;2022-08-01T13:59:31;1.70;;;1.60;;
2041;SDS011;1026;51.460;7.252;2022-08-01T14:01:56;1.50;;;1.40;;
2041;SDS011;1026;51.460;7.252;2022-08-01T14:04:22;1.67;;;1.57;;
2041;SDS011;1026;51.460;7.252;2022-08-01T14:06:48;1.40;;;1.40;;
2041;SDS011;1026;51.460;7.252;2022-08-01T14:09:14;1.67;;;1.57;;
2041;SDS011;1026;51.460;7.252;2022-08-01T14:11:41;1.70;;;1.53;;
2041;SDS011;1026;51.460;7.252;2022-08-01T14:14:07;1.40;;;1.30;;
2041;SDS011;1026;51.460;7.252;2022-08-01T14:16:33;1.60;;;1.50;;
2041;SDS011;1026;51.460;7.252;2022-08-01T14:18:59;1.40;;;1.40;;
2041;SDS011;1026;51.460;7.252;2022-08-01T14:21:24;1.80;;;1.70;;
2041;SDS011;1026;51.460;7.252;2022-08-01T14:23:50;1.43;;;1.30;;
2041;SDS011;1026;51.460;7.252;2022-08-01T14:26:16;1.60;;;1.50;;
2041;SDS011;1026;51.460;7.252;2022-08-01T14:28:41;1.40;;;1.30;;
2041;SDS011;1026;51.460;7.252;2022-08-01T14:31:07;1.53;;;1.43;;
2041;SDS011;1026;51.460;7.252;2022-08-01T14:33:33;1.60;;;1.50;;
2041;SDS011;1026;51.460;7.252;2022-08-01T14:35:59;1.20;;;1.20;;
2041;SDS011;1026;51.460;7.252;2022-08-01T14:38:24;1.20;;;1.20;;
2041;SDS011;1026;51.460;7.252;2022-08-01T14:40:50;2.40;;;1.70;;
2041;SDS011;1026;51.460;7.252;2022-08-01T14:43:17;1.67;;;1.57;;
2041;SDS011;1026;51.460;7.252;2022-08-01T14:45:43;1.00;;;1.00;;
2041;SDS011;1026;51.460;7.252;2022-08-01T14:48:09;1.50;;;1.40;;
2041;SDS011;1026;51.460;7.252;2022-08-01T14:50:35;1.60;;;1.50;;
2041;SDS011;1026;51.460;7.252;2022-08-01T14:53:01;1.43;;;1.33;;
2041;SDS011;1026;51.460;7.252;2022-08-01T14:55:27;1.50;;;1.40;;
2041;SDS011;1026;51.460;7.252;2022-08-01T14:57:53;1.67;;;1.57;;
2041;SDS011;1026;51.460;7.252;2022-08-01T15:00:19;1.80;;;1.70;;
2041;SDS011;1026;51.460;7.252;2022-08-01T15:02:45;1.93;;;1.60;;
2041;SDS011;1026;51.460;7.252;2022-08-01T15:05:11;2.10;;;1.63;;
2041;SDS011;1026;51.460;7.252;2022-08-01T15:07:37;1.73;;;1.40;;
2041;SDS011;1026;51.460;7.252;2022-08-01T15:10:03;2.13;;;1.80;;
2041;SDS011;1026;51.460;7.252;2022-08-01T15:12:30;2.03;;;1.27;;
2041;SDS011;1026;51.460;7.252;2022-08-01T15:14:56;1.97;;;1.87;;
2041;SDS011;1026;51.460;7.252;2022-08-01T15:17:24;1.10;;;1.10;;
2041;SDS011;1026;51.460;7.252;2022-08-01T15:19:56;1.77;;;1.67;;
2041;SDS011;1026;51.460;7.252;2022-08-01T15:22:23;1.57;;;1.30;;
2041;SDS011;1026;51.460;7.252;2022-08-01T15:24:50;2.10;;;1.70;;
2041;SDS011;1026;51.460;7.252;2022-08-01T15:27:16;1.80;;;1.70;;
2041;SDS011;1026;51.460;7.252;2022-08-01T15:29:43;2.50;;;1.47;;
2041;SDS011;1026;51.460;7.252;2022-08-01T15:32:09;1.67;;;1.57;;
2041;SDS011;1026;51.460;7.252;2022-08-01T15:34:35;1.10;;;1.10;;
2041;SDS011;1026;51.460;7.252;2022-08-01T15:37:02;1.47;;;1.37;;
2041;SDS011;1026;51.460;7.252;2022-08-01T15:39:28;1.90;;;1.80;;
2041;SDS011;1026;51.460;7.252;2022-08-01T15:41:54;1.00;;;1.00;;
2041;SDS011;1026;51.460;7.252;2022-08-01T15:44:24;1.53;;;1.43;;
2041;SDS011;1026;51.460;7.252;2022-08-01T15:46:49;1.57;;;1.47;;
2041;SDS011;1026;51.460;7.252;2022-08-01T15:49:16;1.20;;;1.20;;